Disclaimer

Please do not use the information listed here in-flight or in-navigation, as they are not provided to us by the airports but are provided by volunteers, so they might be outdated.

Search


Regions


Airport information page

Radio informations:
Brisbane Center - 122.6 MHz
Common traffic adv. frequency (CTAF) - 126.7 MHz

Airport informations:
Latitude: 29° 45' 34.00" S
Longitude: 153° 01' 48.00" E
Elevation: 110 feet - 34 meters
Operating hours: N/A
Operating agency: Civil government, landing fees and diplomatic clearance may be required
Timezone: UTC+10(+11DT)
Fuel: Jet A1, without icing nhibitor.

100/130 MIL Spec, low lead, aviation gasoline (BLUE)

Runway information:
18/36 - 5607 x 98 feet< - >1709 x 30 meters

Recent METARs:
YGFN 142000Z AUTO 00000KT 9999 // SCT001 SCT110 18/18 Q1017
YGFN 142000Z AUTO 00000KT 9999 // SCT001 SCT110 18/18 Q1017
YGFN 142100Z AUTO 00000KT 9999 // OVC105 20/19 Q1018

Airport on the map: